Time;durP1;ratioP1;P1;durP2;ratioP2;P2;SDS_P1;SDS_P2;PMS_P1;PMS_P2;Temp;Humidity;BMP_temperature;BMP_pressure;BME280_temperature;BME280_humidity;BME280_pressure;Samples;Min_cycle;Max_cycle;Signal;HPM_P1;HPM_P2
2021/12/23 00:01:48;;;;;;;54.67;22.23;;;;;;;-3.85;68.53;101331.41;5070225;28;20040;-21
2021/12/23 00:04:14;;;;;;;42.20;19.30;;;;;;;-3.68;68.60;101344.25;5070541;28;20821;-22
2021/12/23 00:06:40;;;;;;;35.40;18.35;;;;;;;-3.63;68.69;101334.34;5070099;28;20028;-21
2021/12/23 00:09:06;;;;;;;35.92;18.52;;;;;;;-3.47;68.77;101333.41;5070325;28;20040;-21
2021/12/23 00:11:31;;;;;;;33.10;18.35;;;;;;;-3.44;69.50;101321.00;5069999;28;20028;-21
2021/12/23 00:14:06;;;;;;;34.67;18.65;;;;;;;-2.90;67.71;101345.41;5052038;28;20044;-21
2021/12/23 00:24:38;;;;;;;35.45;18.60;;;;;;;-3.49;68.60;101336.09;5069896;28;19958;-21
2021/12/23 00:27:04;;;;;;;42.00;20.40;;;;;;;-3.74;70.16;101334.19;5051875;28;20036;-21
2021/12/23 00:29:30;;;;;;;44.75;18.90;;;;;;;-3.79;69.59;101325.81;5069439;28;20164;-21
2021/12/23 00:31:55;;;;;;;36.50;19.85;;;;;;;-3.94;69.03;101331.97;5069701;28;20029;-21
2021/12/23 00:34:21;;;;;;;48.25;19.10;;;;;;;-3.72;68.60;101313.22;5069911;28;20484;-21
2021/12/23 00:36:46;;;;;;;32.50;17.00;;;;;;;-3.56;67.42;101332.19;5069569;28;20025;-21
2021/12/23 00:39:13;;;;;;;37.40;17.08;;;;;;;-3.63;66.90;101333.53;5069647;28;20495;-21
2021/12/23 00:41:42;;;;;;;35.33;16.92;;;;;;;-3.82;66.61;101320.81;5069570;28;20032;-21
2021/12/23 00:44:07;;;;;;;36.97;17.20;;;;;;;-3.97;66.74;101319.13;5069941;28;20647;-21
2021/12/23 00:46:32;;;;;;;33.83;16.98;;;;;;;-3.92;66.34;101327.53;5069463;28;20170;-21
2021/12/23 00:48:58;;;;;;;35.17;16.00;;;;;;;-3.96;66.05;101331.22;5069304;28;20037;-21
2021/12/23 00:51:23;;;;;;;37.70;16.65;;;;;;;-3.92;66.52;101319.69;5069152;28;20032;-21
2021/12/23 00:53:52;;;;;;;35.40;16.35;;;;;;;-3.80;66.63;101326.75;5069275;28;20040;-21
2021/12/23 00:56:17;;;;;;;29.95;14.90;;;;;;;-3.81;67.19;101326.84;5069339;28;20031;-21
2021/12/23 00:58:43;;;;;;;34.42;15.70;;;;;;;-3.58;66.34;101330.63;5069497;28;20041;-21
2021/12/23 01:01:08;;;;;;;32.65;16.42;;;;;;;-3.68;67.86;101318.19;5069337;28;20039;-21
2021/12/23 01:03:34;;;;;;;28.35;14.57;;;;;;;-3.38;66.53;101327.59;5068921;28;20032;-21
2021/12/23 01:05:59;;;;;;;28.27;15.25;;;;;;;-3.67;66.95;101332.03;5051120;28;20028;-21
2021/12/23 01:08:25;;;;;;;43.47;24.48;;;;;;;-3.69;68.13;101321.69;5051097;28;20067;-21
2021/12/23 01:10:54;;;;;;;38.53;19.27;;;;;;;-3.59;67.32;101305.50;5068806;28;20964;-21
2021/12/23 01:13:20;;;;;;;31.52;17.70;;;;;;;-3.36;66.85;101323.13;5051311;28;20032;-21
2021/12/23 01:16:04;;;;;;;31.73;16.33;;;;;;;-3.68;66.92;101306.88;5068704;28;20027;-21
2021/12/23 01:18:41;;;;;;;31.38;15.27;;;;;;;-3.71;67.39;101313.13;5068834;28;20086;-21
2021/12/23 01:21:19;;;;;;;32.20;15.77;;;;;;;-3.48;66.46;101311.69;5068719;28;20070;-21
2021/12/23 01:23:56;;;;;;;29.77;14.63;;;;;;;-3.22;65.36;101311.81;5052515;28;20039;-21
2021/12/23 01:26:22;;;;;;;33.92;15.05;;;;;;;-3.15;64.60;101304.41;5068984;28;20051;-21
2021/12/23 01:28:50;;;;;;;41.70;29.02;;;;;;;-3.55;66.00;101309.59;5050612;28;20127;-21
2021/12/23 01:31:16;;;;;;;36.30;26.17;;;;;;;-3.76;67.48;101319.56;5068486;28;20031;-21
2021/12/23 01:33:42;;;;;;;28.45;14.88;;;;;;;-3.66;67.49;101302.41;5068407;28;20071;-21
2021/12/23 01:36:07;;;;;;;30.45;15.80;;;;;;;-3.65;66.88;101304.94;5068720;28;20119;-21
2021/12/23 01:38:33;;;;;;;32.40;15.38;;;;;;;-3.51;66.46;101308.47;5069019;28;20043;-21
2021/12/23 01:40:58;;;;;;;29.70;14.60;;;;;;;-3.94;66.48;101295.47;5068442;28;20029;-21
2021/12/23 01:43:24;;;;;;;28.42;14.25;;;;;;;-3.96;67.35;101311.22;5068172;28;20037;-21
2021/12/23 01:45:49;;;;;;;26.20;12.90;;;;;;;-4.00;67.65;101307.13;5068229;28;20562;-21
2021/12/23 01:48:15;;;;;;;28.67;12.70;;;;;;;-4.05;66.62;101285.72;5068327;28;20028;-21
2021/12/23 01:50:41;;;;;;;30.13;14.60;;;;;;;-4.29;67.59;101299.31;5068325;28;20385;-20
2021/12/23 01:53:06;;;;;;;29.13;14.32;;;;;;;-4.57;68.29;101300.13;5050339;28;20043;-21
2021/12/23 01:55:32;;;;;;;24.95;13.35;;;;;;;-4.89;68.98;101282.03;5068227;28;20859;-21
2021/12/23 01:57:57;;;;;;;26.17;13.65;;;;;;;-4.56;67.70;101273.16;5068135;28;20033;-21
2021/12/23 02:00:26;;;;;;;27.05;14.25;;;;;;;-4.61;66.88;101280.41;5068001;28;20024;-21
2021/12/23 02:02:52;;;;;;;;;;;;;;;-4.35;65.83;101306.66;5068669;28;20036;-21
2021/12/23 02:05:17;;;;;;;25.90;13.68;;;;;;;-4.75;66.56;101278.63;5068108;28;19917;-21
2021/12/23 02:07:43;;;;;;;27.73;14.18;;;;;;;-4.51;66.00;101294.56;5067618;28;20942;-21
2021/12/23 02:10:08;;;;;;;25.02;12.05;;;;;;;-4.42;66.94;101290.56;5067924;28;20404;-21
2021/12/23 02:12:34;;;;;;;24.83;12.27;;;;;;;-4.54;67.01;101255.66;5067901;28;20036;-21
2021/12/23 02:14:59;;;;;;;27.50;13.98;;;;;;;-3.92;65.55;101293.63;5067831;28;20035;-23
2021/12/23 02:17:25;;;;;;;24.73;13.40;;;;;;;-3.90;65.09;101304.81;5067920;28;20093;-21
2021/12/23 02:19:54;;;;;;;24.92;11.73;;;;;;;-4.38;67.24;101280.81;5067820;28;20040;-21
2021/12/23 02:22:19;;;;;;;26.30;12.77;;;;;;;-4.42;67.30;101294.94;5067062;28;20093;-21
2021/12/23 02:24:45;;;;;;;30.50;14.95;;;;;;;-4.18;66.61;101290.84;5067968;28;20037;-21
2021/12/23 02:27:11;;;;;;;29.08;14.40;;;;;;;-4.30;65.78;101276.78;5067539;28;20483;-21
2021/12/23 02:29:36;;;;;;;23.92;11.88;;;;;;;-4.11;66.15;101289.53;5067169;28;20091;-21
2021/12/23 02:32:02;;;;;;;24.05;12.13;;;;;;;-3.98;66.38;101288.78;5067873;28;20599;-21
2021/12/23 02:34:27;;;;;;;23.02;10.90;;;;;;;-4.54;67.39;101294.72;5067661;28;20036;-21
2021/12/23 02:36:55;;;;;;;17.67;8.98;;;;;;;-4.50;67.59;101298.81;5067427;28;20032;-21
2021/12/23 02:39:20;;;;;;;21.88;11.02;;;;;;;-4.59;68.13;101301.97;5067660;28;20044;-21
2021/12/23 02:41:46;;;;;;;21.67;11.02;;;;;;;-4.55;67.17;101295.66;5049594;28;20025;-21
2021/12/23 02:44:12;;;;;;;26.40;13.02;;;;;;;-4.98;67.42;101289.53;5067301;28;20040;-21
2021/12/23 02:46:38;;;;;;;22.98;11.07;;;;;;;-4.65;67.54;101295.38;5067538;28;20074;-21
2021/12/23 02:49:03;;;;;;;25.98;12.50;;;;;;;-4.69;66.25;101264.41;5067572;28;20495;-21
2021/12/23 02:51:29;;;;;;;20.65;11.40;;;;;;;-4.56;66.73;101282.72;5067290;28;20477;-21
2021/12/23 02:53:54;;;;;;;21.20;10.80;;;;;;;-4.69;67.10;101247.03;5032951;28;20035;-21
2021/12/23 02:56:21;;;;;;;26.70;13.65;;;;;;;-4.60;66.28;101271.66;5067507;28;20025;-21
2021/12/23 02:58:46;;;;;;;23.02;11.15;;;;;;;-4.38;66.73;101296.44;5049297;28;20678;-21
2021/12/23 03:01:12;;;;;;;18.45;9.75;;;;;;;-4.39;66.61;101292.13;5067442;28;20036;-21
2021/12/23 03:03:38;;;;;;;21.77;10.30;;;;;;;-4.24;65.75;101299.03;5067302;28;20412;-22
2021/12/23 03:06:03;;;;;;;20.88;10.32;;;;;;;-4.52;66.62;101292.88;5067776;28;20421;-21
2021/12/23 03:08:33;;;;;;;25.80;10.40;;;;;;;-4.43;65.95;101294.09;5067424;28;20033;-21
2021/12/23 03:10:58;;;;;;;24.08;11.98;;;;;;;-4.64;66.34;101288.38;5067349;28;20032;-22
2021/12/23 03:13:24;;;;;;;22.95;11.68;;;;;;;-4.87;67.49;101271.53;5067179;28;20044;-21
2021/12/23 03:15:50;;;;;;;22.73;11.30;;;;;;;-4.24;65.45;101289.44;5067251;28;20032;-21
2021/12/23 03:18:16;;;;;;;28.67;12.98;;;;;;;-4.31;65.36;101293.38;5049472;28;20068;-22
2021/12/23 03:20:41;;;;;;;32.40;14.65;;;;;;;-4.25;64.29;101286.94;5049212;28;20036;-21
2021/12/23 03:23:06;;;;;;;31.15;13.50;;;;;;;-4.46;64.67;101292.50;5067678;28;20032;-21
2021/12/23 03:25:32;;;;;;;26.23;12.48;;;;;;;-4.61;65.50;101293.44;5066784;28;20579;-21
2021/12/23 03:27:57;;;;;;;23.60;11.77;;;;;;;-4.55;66.14;101287.03;5067379;28;20040;-21
2021/12/23 03:30:23;;;;;;;19.60;11.10;;;;;;;-4.40;64.22;101303.50;5066867;28;20096;-21
2021/12/23 03:32:48;;;;;;;23.92;11.20;;;;;;;-4.76;65.33;101299.53;5067993;28;20036;-21
2021/12/23 03:35:14;;;;;;;21.70;10.50;;;;;;;-5.07;66.98;101293.47;5070542;28;20028;-21
2021/12/23 03:37:39;;;;;;;23.35;11.30;;;;;;;-4.92;66.07;101292.63;5070764;28;20412;-21
2021/12/23 03:40:05;;;;;;;19.00;10.85;;;;;;;-4.90;66.07;101306.38;5070826;28;20097;-21
2021/12/23 03:42:31;;;;;;;21.42;9.10;;;;;;;-5.03;66.76;101301.97;5070454;28;20091;-21
2021/12/23 03:44:56;;;;;;;22.23;9.25;;;;;;;-5.00;66.70;101305.22;5070766;28;20491;-21
2021/12/23 03:47:22;;;;;;;18.75;9.55;;;;;;;-5.46;67.88;101287.00;5070863;28;20032;-21
2021/12/23 03:49:47;;;;;;;17.85;9.02;;;;;;;-5.09;67.55;101300.53;5070765;28;20040;-21
2021/12/23 03:52:13;;;;;;;21.35;10.48;;;;;;;-5.01;66.71;101303.53;5070739;28;20029;-21
2021/12/23 03:54:38;;;;;;;20.10;9.65;;;;;;;-4.98;66.93;101307.75;5070672;28;20043;-22
2021/12/23 03:57:04;;;;;;;22.33;10.18;;;;;;;-4.60;66.28;101318.50;5070642;28;20047;-21
2021/12/23 03:59:29;;;;;;;17.08;8.93;;;;;;;-4.67;66.50;101319.81;5070205;28;20029;-21
2021/12/23 04:01:55;;;;;;;20.30;9.55;;;;;;;-4.88;66.67;101320.13;5070319;28;20032;-21
2021/12/23 04:04:20;;;;;;;21.45;11.23;;;;;;;-4.94;66.63;101325.69;5070204;28;20036;-21
2021/12/23 04:06:46;;;;;;;26.75;11.77;;;;;;;-4.65;65.26;101331.81;5070522;28;20028;-21
2021/12/23 04:09:11;;;;;;;47.13;20.08;;;;;;;-5.04;65.63;101332.34;5070232;28;20089;-21
2021/12/23 04:11:37;;;;;;;65.80;22.70;;;;;;;-5.19;66.50;101307.19;5069813;28;20039;-21
2021/12/23 04:14:02;;;;;;;33.63;15.10;;;;;;;-5.21;66.64;101322.91;5070307;28;20040;-21
2021/12/23 04:16:28;;;;;;;25.15;12.07;;;;;;;-5.04;66.66;101345.34;5070139;28;20082;-20
2021/12/23 04:18:54;;;;;;;21.00;10.50;;;;;;;-4.86;66.51;101333.06;5069965;28;20040;-22
2021/12/23 04:21:20;;;;;;;24.17;11.07;;;;;;;-4.46;64.25;101334.16;5070321;28;20476;-21
2021/12/23 04:23:45;;;;;;;21.42;10.35;;;;;;;-4.94;65.73;101315.28;5070099;28;20047;-21
2021/12/23 04:26:11;;;;;;;26.60;11.80;;;;;;;-4.50;64.87;101337.88;5069573;28;20037;-20
2021/12/23 04:28:45;;;;;;;20.55;11.07;;;;;;;-4.36;64.38;101337.06;5069735;28;20060;-21
2021/12/23 04:31:12;;;;;;;26.08;13.90;;;;;;;-4.96;66.04;101345.75;5069222;28;20033;-21
2021/12/23 04:33:38;;;;;;;31.35;16.55;;;;;;;-5.18;65.71;101324.47;5068197;28;20424;-21
2021/12/23 04:36:04;;;;;;;32.92;17.27;;;;;;;-4.76;64.76;101349.81;5070136;28;20032;-21
2021/12/23 04:38:29;;;;;;;44.90;20.75;;;;;;;-4.68;64.18;101358.03;5068953;28;20480;-22
2021/12/23 04:40:55;;;;;;;40.92;18.02;;;;;;;-4.52;63.82;101350.16;5068957;28;20039;-21
2021/12/23 04:43:20;;;;;;;27.17;14.50;;;;;;;-4.33;63.73;101343.84;5069816;28;20103;-21
2021/12/23 04:45:46;;;;;;;28.38;15.05;;;;;;;-4.78;64.37;101330.84;5068722;28;20028;-21
2021/12/23 04:48:11;;;;;;;29.13;15.73;;;;;;;-4.41;63.65;101357.34;5069601;28;20040;-21
2021/12/23 04:50:37;;;;;;;32.03;17.98;;;;;;;-4.55;63.26;101350.34;5069576;28;20400;-21
2021/12/23 04:53:02;;;;;;;32.75;18.48;;;;;;;-4.87;63.96;101305.34;5069425;28;20036;-21
2021/12/23 04:55:30;;;;;;;31.80;17.73;;;;;;;-4.88;64.08;101311.50;5051197;28;20453;-21
2021/12/23 04:57:56;;;;;;;51.78;25.45;;;;;;;-4.69;63.84;101325.09;5069386;28;20115;-21
2021/12/23 05:00:22;;;;;;;69.93;31.42;;;;;;;-4.96;64.59;101331.91;5069299;28;20043;-21
2021/12/23 05:02:47;;;;;;;71.32;33.92;;;;;;;-4.71;64.65;101341.75;5068856;28;20035;-21
2021/12/23 05:05:13;;;;;;;79.00;35.88;;;;;;;-4.97;65.44;101346.66;5069067;28;20016;-21
2021/12/23 05:07:38;;;;;;;120.07;45.75;;;;;;;-5.02;65.52;101353.06;5068806;28;20066;-21
2021/12/23 05:10:06;;;;;;;79.13;34.55;;;;;;;-5.26;66.13;101341.34;5068924;28;20031;-21
2021/12/23 05:12:31;;;;;;;67.88;30.55;;;;;;;-5.74;67.70;101345.72;5069366;28;20029;-21
2021/12/23 05:14:57;;;;;;;74.10;30.25;;;;;;;-5.40;66.63;101337.84;5068749;28;20035;-21
2021/12/23 05:17:22;;;;;;;51.45;23.42;;;;;;;-5.33;66.56;101344.34;5068844;28;20039;-21
2021/12/23 05:19:47;;;;;;;69.45;28.95;;;;;;;-5.77;67.59;101329.44;5068812;28;20040;-21
2021/12/23 05:22:13;;;;;;;95.47;32.33;;;;;;;-5.79;68.12;101320.88;5069304;28;20032;-21
2021/12/23 05:24:38;;;;;;;56.38;20.95;;;;;;;-5.51;67.34;101347.06;5068709;28;20836;-21
2021/12/23 05:27:04;;;;;;;68.70;30.10;;;;;;;-5.38;66.80;101334.22;5068958;28;20036;-21
2021/12/23 05:29:30;;;;;;;105.07;38.30;;;;;;;-5.09;66.30;101339.56;5068240;28;20056;-21
2021/12/23 05:31:55;;;;;;;65.55;30.55;;;;;;;-5.26;65.80;101336.13;5068804;28;20029;-20
2021/12/23 05:34:20;;;;;;;108.50;39.58;;;;;;;-5.25;66.19;101348.22;5068684;28;20039;-21
2021/12/23 05:36:46;;;;;;;87.90;34.90;;;;;;;-5.31;66.34;101343.38;5068406;28;20465;-21
2021/12/23 05:39:11;;;;;;;75.40;31.27;;;;;;;-4.87;64.77;101345.22;5068594;28;20028;-21
2021/12/23 05:41:37;;;;;;;57.95;25.70;;;;;;;-4.90;63.72;101342.81;5068249;28;20039;-21
2021/12/23 05:44:02;;;;;;;50.13;24.05;;;;;;;-5.43;65.00;101335.38;5068526;28;20451;-21
2021/12/23 05:46:28;;;;;;;78.10;31.42;;;;;;;-4.92;63.87;101342.06;5068257;28;20032;-21
2021/12/23 05:48:53;;;;;;;68.78;33.67;;;;;;;-4.98;64.49;101349.38;5068578;28;20043;-21
2021/12/23 05:51:19;;;;;;;69.63;33.47;;;;;;;-4.79;64.00;101338.75;5068266;28;20476;-21
2021/12/23 05:53:44;;;;;;;59.80;30.40;;;;;;;-5.43;65.84;101306.78;5067932;28;20419;-22
2021/12/23 05:56:10;;;;;;;61.65;29.77;;;;;;;-5.46;65.79;101336.41;5049926;28;20027;-21
2021/12/23 05:58:35;;;;;;;55.92;25.58;;;;;;;-5.22;65.41;101352.41;5068409;28;20143;-21
2021/12/23 06:01:01;;;;;;;50.25;24.08;;;;;;;-4.96;64.46;101353.56;5067902;28;20035;-21
2021/12/23 06:03:26;;;;;;;51.35;26.65;;;;;;;-5.06;64.19;101355.00;5067853;28;20185;-21
2021/12/23 06:05:52;;;;;;;61.13;32.08;;;;;;;-5.18;64.31;101363.50;5067892;28;20043;-21
2021/12/23 06:08:17;;;;;;;73.43;33.72;;;;;;;-5.43;64.74;101333.66;5067899;28;20047;-21
2021/12/23 06:10:43;;;;;;;54.45;27.45;;;;;;;-5.11;65.12;101364.81;5068122;28;20028;-21
2021/12/23 06:13:08;;;;;;;54.80;28.27;;;;;;;-4.81;63.64;101341.44;5050091;28;20804;-21
2021/12/23 06:15:34;;;;;;;73.07;36.83;;;;;;;-5.12;65.48;101370.97;5067481;28;20396;-22
2021/12/23 06:17:59;;;;;;;96.30;42.90;;;;;;;-5.56;68.06;101380.25;5068130;28;20028;-21
2021/12/23 06:20:25;;;;;;;102.68;46.90;;;;;;;-5.34;66.81;101363.50;5067813;28;20032;-21
2021/12/23 06:22:50;;;;;;;199.95;80.55;;;;;;;-5.07;66.54;101361.13;5067784;28;20055;-21
2021/12/23 06:25:16;;;;;;;350.63;125.53;;;;;;;-5.15;65.90;101326.91;5049694;28;20111;-20
2021/12/23 06:27:42;;;;;;;276.60;104.07;;;;;;;-5.30;68.14;101371.03;5067396;28;20036;-21
2021/12/23 06:30:19;;;;;;;198.52;84.15;;;;;;;-5.14;68.17;101370.19;5068001;28;20057;-23
2021/12/23 06:32:46;;;;;;;207.27;81.20;;;;;;;-5.15;68.25;101368.50;5067788;28;20032;-21
2021/12/23 06:35:11;;;;;;;280.58;109.10;;;;;;;-4.85;66.48;101365.94;5067692;28;20205;-21
2021/12/23 06:37:37;;;;;;;341.23;125.10;;;;;;;-4.35;65.21;101370.00;5067877;28;20500;-21
2021/12/23 06:40:03;;;;;;;280.33;103.82;;;;;;;-4.12;65.01;101388.66;5067714;28;20071;-22
2021/12/23 06:42:28;;;;;;;237.07;90.55;;;;;;;-4.32;65.84;101362.00;5049504;28;20033;-21
2021/12/23 06:44:54;;;;;;;219.23;81.30;;;;;;;-3.72;63.47;101384.47;5067313;28;20044;-22
2021/12/23 06:47:19;;;;;;;177.75;70.93;;;;;;;-3.84;64.38;101378.22;5067725;28;20408;-21
2021/12/23 06:49:47;;;;;;;156.68;62.63;;;;;;;-4.01;64.72;101382.78;5067250;28;20032;-21
2021/12/23 06:52:12;;;;;;;167.60;64.93;;;;;;;-4.35;66.15;101369.16;5067539;28;20043;-22
2021/12/23 06:54:42;;;;;;;201.25;80.88;;;;;;;-4.13;66.27;101395.59;5067476;28;20041;-22
2021/12/23 06:57:08;;;;;;;194.98;79.65;;;;;;;-4.31;67.41;101386.28;5067334;28;20029;-21
2021/12/23 06:59:33;;;;;;;205.70;83.90;;;;;;;-4.17;68.10;101390.66;5067178;28;20063;-21
2021/12/23 07:01:59;;;;;;;218.90;93.32;;;;;;;-3.87;67.00;101398.44;5067523;28;20024;-21
2021/12/23 07:04:29;;;;;;;217.68;89.65;;;;;;;-4.20;67.56;101367.44;5067687;28;20029;-21
2021/12/23 07:07:11;;;;;;;191.43;79.40;;;;;;;-3.92;67.76;101387.47;5050342;28;20047;-21
2021/12/23 07:09:37;;;;;;;188.20;74.00;;;;;;;-3.80;66.81;101384.09;5071245;28;20079;-21
2021/12/23 07:12:04;;;;;;;166.80;73.32;;;;;;;-3.30;66.47;101393.16;5070887;28;20068;-21
2021/12/23 07:14:29;;;;;;;101.55;48.88;;;;;;;-3.05;65.14;101373.34;5071102;28;20112;-21
2021/12/23 07:16:55;;;;;;;126.55;57.20;;;;;;;-2.68;64.36;101389.22;5070943;28;20037;-21
2021/12/23 07:19:20;;;;;;;114.78;54.03;;;;;;;-2.74;65.51;101392.22;5053201;28;20032;-21
2021/12/23 07:21:45;;;;;;;116.68;54.70;;;;;;;-3.04;65.99;101380.25;5070771;28;20385;-21
2021/12/23 07:24:11;;;;;;;80.43;42.28;;;;;;;-2.79;65.93;101400.38;5071583;28;20048;-21
2021/12/23 07:26:36;;;;;;;72.75;35.65;;;;;;;-2.97;66.91;101402.38;5071082;28;20037;-21
2021/12/23 07:29:02;;;;;;;70.97;35.55;;;;;;;-3.50;68.49;101386.56;5070725;28;20078;-20
2021/12/23 07:31:27;;;;;;;85.25;40.20;;;;;;;-2.95;67.31;101373.59;5071022;28;20028;-21
2021/12/23 07:33:53;;;;;;;86.45;40.67;;;;;;;-2.79;66.15;101373.44;5071147;28;20040;-21
2021/12/23 07:36:18;;;;;;;67.15;36.85;;;;;;;-3.05;67.38;101394.22;5070717;28;20436;-21
2021/12/23 07:38:44;;;;;;;62.38;33.00;;;;;;;-3.48;69.85;101352.59;5053004;28;20032;-23
2021/12/23 07:41:10;;;;;;;60.22;30.17;;;;;;;-3.16;68.77;101383.63;5070902;28;20024;-21
2021/12/23 07:46:01;;;;;;;52.38;27.98;;;;;;;-2.81;69.10;101385.75;5070794;28;20020;-21
2021/12/23 07:48:27;;;;;;;50.28;26.23;;;;;;;-2.89;69.42;101394.91;5070631;28;20116;-21
2021/12/23 07:50:56;;;;;;;46.65;25.48;;;;;;;-2.36;69.06;101392.31;5070355;28;20035;-20
2021/12/23 07:53:21;;;;;;;41.70;20.80;;;;;;;-2.26;66.93;101387.31;5070672;28;20047;-21
2021/12/23 07:55:47;;;;;;;37.40;21.02;;;;;;;-2.10;66.76;101398.41;5070178;28;20028;-20
2021/12/23 07:58:12;;;;;;;31.52;18.15;;;;;;;-2.15;66.41;101397.03;5070460;28;20025;-21
2021/12/23 08:00:37;;;;;;;41.03;20.67;;;;;;;-1.79;65.84;101400.72;5070604;28;20029;-21
2021/12/23 08:03:03;;;;;;;39.63;21.02;;;;;;;-2.00;66.42;101369.03;5070767;28;20040;-21
2021/12/23 08:05:30;;;;;;;33.65;18.70;;;;;;;-2.06;65.88;101376.34;5070250;28;20582;-21
2021/12/23 08:07:56;;;;;;;34.22;19.27;;;;;;;-1.69;64.90;101392.13;5052542;28;20040;-21
2021/12/23 08:10:22;;;;;;;34.60;18.45;;;;;;;-1.47;65.13;101388.00;5070425;28;20032;-21
2021/12/23 08:12:47;;;;;;;35.47;18.90;;;;;;;-1.20;63.54;101392.22;5070175;28;20091;-20
2021/12/23 08:15:12;;;;;;;32.78;18.70;;;;;;;-1.35;63.95;101392.34;5069997;28;20079;-21
2021/12/23 08:17:38;;;;;;;33.97;19.70;;;;;;;-0.98;62.97;101391.50;5052036;28;20040;-21
2021/12/23 08:20:04;;;;;;;41.05;22.02;;;;;;;-0.71;62.97;101386.88;5069176;28;20142;-21
2021/12/23 08:22:30;;;;;;;34.53;18.00;;;;;;;-1.28;63.52;101385.75;5069730;28;20029;-21
2021/12/23 08:24:55;;;;;;;34.40;18.88;;;;;;;-1.49;64.63;101397.72;5070230;28;20385;-21
2021/12/23 08:27:25;;;;;;;38.72;20.17;;;;;;;-1.13;62.77;101375.13;5070068;28;20040;-21
2021/12/23 08:29:50;;;;;;;33.92;18.42;;;;;;;-0.90;63.37;101378.69;5069498;28;20478;-21
2021/12/23 08:32:16;;;;;;;29.95;17.20;;;;;;;-1.23;64.98;101383.66;5069900;28;20032;-21
2021/12/23 08:34:41;;;;;;;32.90;18.25;;;;;;;-1.08;64.65;101386.94;5070139;28;20784;-21
2021/12/23 08:37:11;;;;;;;35.28;18.90;;;;;;;-0.73;62.67;101375.69;5069740;28;20062;-21
2021/12/23 08:39:37;;;;;;;30.77;18.02;;;;;;;-0.67;62.46;101363.91;5069661;28;20044;-21
2021/12/23 08:42:03;;;;;;;31.17;17.40;;;;;;;-0.55;62.69;101372.63;5069530;28;20052;-21
2021/12/23 08:44:28;;;;;;;30.52;17.13;;;;;;;-0.24;61.92;101356.28;5069481;28;20555;-21
2021/12/23 08:46:54;;;;;;;30.23;17.42;;;;;;;-0.03;61.03;101348.53;5069771;28;20032;-21
2021/12/23 08:49:19;;;;;;;30.90;18.00;;;;;;;0.35;59.34;101381.47;5069631;28;20572;-21
2021/12/23 08:51:45;;;;;;;31.77;17.08;;;;;;;0.32;58.65;101373.81;5069578;28;20036;-21
2021/12/23 08:54:10;;;;;;;33.13;20.25;;;;;;;0.56;57.81;101362.38;5069421;28;20032;-21
2021/12/23 08:56:35;;;;;;;32.90;17.67;;;;;;;0.50;59.68;101363.69;5069387;28;20459;-21
2021/12/23 08:59:01;;;;;;;30.10;16.67;;;;;;;0.08;59.53;101349.50;5051253;28;20028;-21
2021/12/23 09:01:26;;;;;;;29.88;16.15;;;;;;;0.65;58.45;101356.38;5069127;28;20032;-21
2021/12/23 09:03:52;;;;;;;26.65;16.70;;;;;;;1.05;56.53;101349.72;5069301;28;20671;-22
2021/12/23 09:06:17;;;;;;;29.08;18.20;;;;;;;1.17;55.75;101336.38;5069402;28;20032;-22
2021/12/23 09:08:43;;;;;;;27.60;17.02;;;;;;;0.57;58.03;101351.75;5069254;28;20043;-21
2021/12/23 09:11:08;;;;;;;25.17;15.20;;;;;;;0.07;58.51;101342.59;5069043;28;20040;-21
2021/12/23 09:13:34;;;;;;;28.73;17.02;;;;;;;0.58;57.54;101356.03;5068877;28;20432;-20
2021/12/23 09:15:59;;;;;;;33.47;17.85;;;;;;;0.90;57.47;101330.75;5068849;28;20025;-21
2021/12/23 09:18:25;;;;;;;30.17;17.27;;;;;;;1.36;56.63;101342.75;5068945;28;20039;-21
2021/12/23 09:20:51;;;;;;;27.45;15.55;;;;;;;1.09;55.07;101309.09;5068826;28;20035;-21
2021/12/23 09:23:16;;;;;;;26.25;16.05;;;;;;;1.08;54.97;101334.50;5068766;28;20036;-21
2021/12/23 09:25:42;;;;;;;25.05;15.00;;;;;;;1.09;56.87;101330.09;5068915;28;20105;-21
2021/12/23 09:28:24;;;;;;;29.88;16.65;;;;;;;1.36;56.48;101311.22;5068672;28;20036;-21
2021/12/23 09:33:34;;;;;;;27.95;15.43;;;;;;;1.64;54.73;101315.00;5068494;28;20043;-20
2021/12/23 09:35:59;;;;;;;25.13;13.80;;;;;;;1.32;55.24;101305.38;5069001;28;20029;-20
2021/12/23 09:38:28;;;;;;;27.70;14.75;;;;;;;1.38;54.74;101304.84;5068798;28;20033;-21
2021/12/23 09:41:05;;;;;;;23.55;14.38;;;;;;;1.43;54.31;101275.59;5068704;28;20052;-21
2021/12/23 09:43:31;;;;;;;23.05;11.75;;;;;;;1.22;53.15;101272.09;5068423;28;20033;-20
2021/12/23 09:45:57;;;;;;;22.52;13.57;;;;;;;1.52;54.99;101290.56;5068486;28;20052;-20
2021/12/23 09:48:22;;;;;;;25.00;13.70;;;;;;;1.38;55.12;101298.78;5068411;28;20106;-20
2021/12/23 09:50:49;;;;;;;20.50;12.60;;;;;;;1.57;54.21;101277.88;5068442;28;20037;-20
2021/12/23 09:53:15;;;;;;;21.58;12.32;;;;;;;1.84;51.71;101289.63;5068385;28;20099;-21
2021/12/23 09:55:40;;;;;;;19.92;11.75;;;;;;;1.30;52.51;101264.41;5068057;28;20028;-21
2021/12/23 09:58:06;;;;;;;21.77;12.38;;;;;;;1.45;53.48;101257.03;5050439;28;20028;-21
2021/12/23 10:00:33;;;;;;;20.33;11.93;;;;;;;1.74;52.09;101244.88;5068280;28;20028;-21
2021/12/23 10:02:59;;;;;;;21.17;12.75;;;;;;;2.46;50.73;101274.56;5068445;28;20075;-21
2021/12/23 10:05:28;;;;;;;23.83;13.18;;;;;;;2.50;50.00;101269.88;5067874;28;20408;-20
2021/12/23 10:07:54;;;;;;;21.27;12.02;;;;;;;2.25;51.04;101256.25;5050333;28;20028;-20
2021/12/23 10:10:27;;;;;;;21.20;13.00;;;;;;;2.75;50.50;101266.69;5068050;28;20800;-21
2021/12/23 10:32:14;;;;;;;23.75;12.45;;;;;;;3.46;47.93;101211.94;5068002;28;20581;-21
2021/12/23 10:37:22;;;;;;;17.80;11.15;;;;;;;3.68;46.81;101216.00;5067472;28;20071;-20
2021/12/23 10:40:03;;;;;;;17.45;10.95;;;;;;;3.59;47.38;101221.16;5067516;28;20047;-21
2021/12/23 10:42:28;;;;;;;18.67;11.38;;;;;;;4.11;45.77;101217.19;5066899;28;20028;-21
2021/12/23 10:45:04;;;;;;;20.23;10.68;;;;;;;4.19;45.34;101212.00;5067547;28;20478;-21
2021/12/23 10:47:48;;;;;;;18.88;11.35;;;;;;;4.13;46.73;101205.50;5067331;28;20500;-21
2021/12/23 10:50:29;;;;;;;16.20;10.05;;;;;;;3.97;44.27;101208.78;5067809;28;20097;-21
2021/12/23 10:52:59;;;;;;;18.38;11.57;;;;;;;4.49;44.32;101186.19;5067561;28;20119;-20
2021/12/23 10:58:08;;;;;;;18.77;11.18;;;;;;;4.87;42.99;101176.28;5067528;28;20115;-21
2021/12/23 11:00:36;;;;;;;16.88;10.30;;;;;;;4.71;42.84;101161.94;5067682;28;20036;-20
2021/12/23 11:03:26;;;;;;;20.75;10.93;;;;;;;5.03;42.11;101201.00;5067357;28;20412;-21
2021/12/23 11:06:14;;;;;;;19.17;10.75;;;;;;;5.60;41.11;101174.06;5067518;28;20033;-20
2021/12/23 11:08:52;;;;;;;17.42;10.85;;;;;;;5.46;40.33;101182.59;5067451;28;20070;-20
2021/12/23 11:41:51;;;;;;;17.85;11.55;;;;;;;8.22;34.67;101140.25;5066984;28;20041;-21
2021/12/23 11:44:16;;;;;;;14.50;10.10;;;;;;;8.84;34.05;101142.75;5067200;28;20024;-20
2021/12/23 11:46:50;;;;;;;13.88;8.82;;;;;;;8.76;33.85;101140.16;5066796;28;20424;-20
2021/12/23 11:49:17;;;;;;;13.25;8.07;;;;;;;7.96;33.39;101138.75;5067189;28;20049;-21
2021/12/23 11:51:53;;;;;;;14.25;8.55;;;;;;;8.77;33.51;101133.84;5066941;28;20048;-20
2021/12/23 11:54:44;;;;;;;12.82;7.80;;;;;;;8.65;31.84;101137.94;5068333;28;20056;-21
2021/12/23 11:57:16;;;;;;;12.57;7.32;;;;;;;8.41;31.75;101142.44;5052963;28;20055;-21
2021/12/23 11:59:43;;;;;;;11.95;7.82;;;;;;;8.28;32.67;101136.88;5070119;28;20089;-21
2021/12/23 12:02:18;;;;;;;12.35;7.70;;;;;;;8.07;32.46;101118.09;5052671;28;20078;-20
2021/12/23 12:04:44;;;;;;;12.68;7.43;;;;;;;8.23;31.95;101117.97;5070270;28;20233;-20
2021/12/23 12:07:13;;;;;;;12.30;8.05;;;;;;;8.27;32.70;101121.94;5070254;28;20531;-20
2021/12/23 12:09:52;;;;;;;14.35;8.77;;;;;;;9.00;32.23;101114.34;5052198;28;20033;-21
2021/12/23 12:12:18;;;;;;;14.25;8.40;;;;;;;9.43;32.56;101123.31;5054101;28;20416;-20
2021/12/23 12:14:45;;;;;;;13.70;8.57;;;;;;;9.36;32.21;101134.91;5070224;28;20032;-21
2021/12/23 12:17:25;;;;;;;12.77;7.72;;;;;;;8.37;32.95;101134.97;5070135;28;20495;-20
2021/12/23 12:20:10;;;;;;;15.25;8.25;;;;;;;9.04;31.09;101134.25;5070415;28;20396;-21